createdAt,value
2017-03-22T00:00:19.926Z,77.37
2017-03-22T00:01:20.238Z,77.47
2017-03-22T00:02:19.992Z,77.56
2017-03-22T00:03:20.020Z,77.56
2017-03-22T00:04:20.365Z,77.56
2017-03-22T00:05:20.082Z,77.56
2017-03-22T00:06:20.124Z,77.66
2017-03-22T00:07:20.145Z,77.85
2017-03-22T00:08:20.183Z,77.76
2017-03-22T00:09:20.524Z,77.19
2017-03-22T00:10:20.264Z,77.47
2017-03-22T00:11:20.297Z,77.66
2017-03-22T00:12:20.640Z,77.56
2017-03-22T00:13:20.678Z,77.66
2017-03-22T00:14:20.699Z,77.66
2017-03-22T00:15:20.437Z,77.85
2017-03-22T00:16:20.761Z,77.47
2017-03-22T00:17:20.813Z,77.56
2017-03-22T00:18:20.842Z,77.76
2017-03-22T00:19:20.864Z,78.04
2017-03-22T00:20:20.614Z,77.56
2017-03-22T00:21:20.632Z,77.76
2017-03-22T00:22:20.680Z,77.95
2017-03-22T00:23:21.004Z,77.66
2017-03-22T00:24:21.038Z,77.76
2017-03-22T00:25:20.784Z,77.66
2017-03-22T00:26:21.110Z,77.95
2017-03-22T00:27:21.163Z,77.85
2017-03-22T00:28:21.178Z,77.66
2017-03-22T00:29:21.215Z,77.76
2017-03-22T00:30:20.960Z,77.85
2017-03-22T00:31:21.285Z,77.85
2017-03-22T00:32:21.016Z,78.14
2017-03-22T00:33:21.351Z,78.52
2017-03-22T00:34:21.096Z,78.52
2017-03-22T00:35:21.134Z,78.61
2017-03-22T00:36:21.171Z,78.33
2017-03-22T00:37:21.490Z,78.42
2017-03-22T00:38:21.223Z,78.52
2017-03-22T00:39:21.561Z,78.14
2017-03-22T00:40:21.593Z,78.42
2017-03-22T00:41:21.340Z,78.42
2017-03-22T00:42:21.361Z,78.23
2017-03-22T00:43:21.719Z,78.23
2017-03-22T00:44:21.733Z,78.33
2017-03-22T00:45:21.479Z,78.8
2017-03-22T00:46:21.804Z,78.52
2017-03-22T00:47:21.858Z,78.33
2017-03-22T00:48:21.873Z,78.99
2017-03-22T00:49:21.608Z,78.71
2017-03-22T00:50:21.639Z,78.8
2017-03-22T00:51:21.976Z,78.42
2017-03-22T00:52:21.709Z,78.71
2017-03-22T00:53:22.068Z,78.99
2017-03-22T00:54:22.103Z,78.71
2017-03-22T00:55:22.115Z,79.19
2017-03-22T00:56:21.847Z,78.9
2017-03-22T00:57:22.185Z,78.9
2017-03-22T00:58:22.240Z,78.23
2017-03-22T00:59:22.259Z,79.09
2017-03-22T01:00:21.989Z,78.9
2017-03-22T01:01:22.362Z,79.09
2017-03-22T01:02:22.070Z,78.9
2017-03-22T01:03:22.417Z,78.99
2017-03-22T01:04:22.428Z,78.8
2017-03-22T01:05:22.166Z,79.38
2017-03-22T01:06:22.210Z,78.71
2017-03-22T01:07:22.245Z,78.99
2017-03-22T01:08:22.283Z,79.28
2017-03-22T01:09:22.601Z,79.47
2017-03-22T01:10:22.350Z,78.61
2017-03-22T01:11:22.384Z,78.61
2017-03-22T01:12:22.711Z,79.28
2017-03-22T01:13:22.768Z,79.28
2017-03-22T01:14:22.776Z,79.19
2017-03-22T01:15:22.513Z,79.19
2017-03-22T01:16:22.558Z,79.19
2017-03-22T01:17:22.577Z,78.99
2017-03-22T01:18:22.935Z,79.57
2017-03-22T01:19:22.969Z,79.57
2017-03-22T01:20:22.696Z,79.47
2017-03-22T01:21:22.731Z,79.28
2017-03-22T01:22:22.767Z,79.57
2017-03-22T01:23:23.112Z,79.66
2017-03-22T01:24:23.133Z,79.47
2017-03-22T01:25:22.876Z,79.47
2017-03-22T01:26:22.888Z,80.13
2017-03-22T01:27:22.925Z,80.04
2017-03-22T01:28:22.961Z,79.57
2017-03-22T01:29:23.319Z,80.04
2017-03-22T01:30:23.031Z,80.23
2017-03-22T01:31:23.077Z,79.85
2017-03-22T01:32:23.114Z,80.04
2017-03-22T01:33:23.438Z,80.04
2017-03-22T01:34:23.501Z,79.94
2017-03-22T01:35:23.218Z,79.75
2017-03-22T01:36:23.549Z,79.85
2017-03-22T01:37:23.270Z,79.94
2017-03-22T01:38:23.609Z,79.94
2017-03-22T01:39:23.359Z,79.94
2017-03-22T01:40:23.392Z,80.13
2017-03-22T01:41:23.411Z,80.23
2017-03-22T01:42:23.462Z,80.33
2017-03-22T01:43:23.787Z,80.23
2017-03-22T01:44:23.518Z,80.42
2017-03-22T01:45:23.853Z,80.29
2017-03-22T01:46:23.585Z,80.13
2017-03-22T01:47:23.639Z,80.38
2017-03-22T01:48:23.955Z,80.42
2017-03-22T01:49:24.010Z,80.33
2017-03-22T01:50:23.739Z,80.29
2017-03-22T01:51:23.779Z,79.72
2017-03-22T01:52:23.807Z,80
2017-03-22T01:53:24.152Z,80
2017-03-22T01:54:23.862Z,80.19
2017-03-22T01:55:23.912Z,80
2017-03-22T01:56:23.930Z,79.72
2017-03-22T01:57:23.982Z,79.91
2017-03-22T01:58:24.325Z,79.91
2017-03-22T01:59:24.344Z,80
2017-03-22T02:00:24.069Z,79.62
2017-03-22T02:01:24.119Z,80.23
2017-03-22T02:02:24.462Z,79.62
2017-03-22T02:03:24.175Z,79.94
2017-03-22T02:04:24.225Z,80
2017-03-22T02:05:24.243Z,79.72
2017-03-22T02:06:24.293Z,79.85
2017-03-22T02:07:24.343Z,80.29
2017-03-22T02:08:24.656Z,80.29
2017-03-22T02:09:24.705Z,80.47
2017-03-22T02:10:24.739Z,80.33
2017-03-22T02:11:24.752Z,80
2017-03-22T02:12:24.486Z,80.1
2017-03-22T02:13:24.519Z,80.47
2017-03-22T02:14:24.570Z,80.29
2017-03-22T02:15:24.587Z,80.57
2017-03-22T02:16:24.644Z,80.19
2017-03-22T02:17:24.657Z,80.47
2017-03-22T02:18:24.704Z,80.66
2017-03-22T02:19:24.745Z,80.52
2017-03-22T02:20:24.777Z,80.57
2017-03-22T02:21:24.812Z,80.57
2017-03-22T02:22:24.830Z,80.29
2017-03-22T02:23:25.171Z,80.29
2017-03-22T02:24:25.205Z,80.29
2017-03-22T02:25:24.952Z,80.57
2017-03-22T02:26:24.968Z,80.76
2017-03-22T02:27:25.004Z,80.47
2017-03-22T02:28:25.341Z,80.38
2017-03-22T02:29:25.077Z,80.19
2017-03-22T02:30:25.126Z,80.57
2017-03-22T02:31:25.142Z,80.38
2017-03-22T02:32:25.176Z,80.47
2017-03-22T02:33:25.235Z,80.47
2017-03-22T02:34:25.260Z,80.29
2017-03-22T02:35:25.296Z,80.47
2017-03-22T02:36:25.313Z,80.38
2017-03-22T02:37:25.351Z,80.1
2017-03-22T02:38:25.385Z,80.19
2017-03-22T02:39:25.422Z,79.91
2017-03-22T02:40:25.478Z,80
2017-03-22T02:41:25.501Z,79.72
2017-03-22T02:42:25.524Z,80
2017-03-22T02:43:25.557Z,79.43
2017-03-22T02:44:25.610Z,79.24
2017-03-22T02:45:25.641Z,79.52
2017-03-22T02:46:25.661Z,79.33
2017-03-22T02:47:25.693Z,80
2017-03-22T02:48:25.750Z,79.33
2017-03-22T02:49:25.793Z,79.52
2017-03-22T02:50:25.816Z,79.43
2017-03-22T02:51:25.849Z,79.72
2017-03-22T02:52:25.869Z,79.33
2017-03-22T02:53:25.922Z,79.52
2017-03-22T02:54:25.950Z,79.91
2017-03-22T02:55:25.972Z,79.33
2017-03-22T02:56:26.010Z,79.72
2017-03-22T02:57:26.043Z,79.14
2017-03-22T02:58:26.079Z,78.96
2017-03-22T02:59:26.125Z,79.91
2017-03-22T03:00:26.146Z,79.91
2017-03-22T03:01:26.193Z,79.81
2017-03-22T03:02:26.213Z,79.14
2017-03-22T03:03:26.250Z,79.81
2017-03-22T03:04:26.284Z,79.24
2017-03-22T03:05:26.334Z,79.33
2017-03-22T03:06:26.367Z,79.52
2017-03-22T03:07:26.385Z,79.33
2017-03-22T03:08:26.439Z,79.52
2017-03-22T03:09:26.456Z,79.33
2017-03-22T03:10:26.487Z,79.43
2017-03-22T03:11:26.523Z,79.24
2017-03-22T03:12:26.558Z,79.05
2017-03-22T03:13:26.613Z,78.86
2017-03-22T03:14:26.645Z,79.05
2017-03-22T03:15:26.678Z,79.05
2017-03-22T03:16:26.696Z,79.14
2017-03-22T03:17:26.731Z,79.43
2017-03-22T03:18:26.767Z,78.77
2017-03-22T03:19:27.124Z,79.72
2017-03-22T03:20:26.851Z,79.33
2017-03-22T03:21:26.871Z,79.52
2017-03-22T03:22:26.903Z,78.67
2017-03-22T03:23:26.955Z,78.67
2017-03-22T03:24:26.993Z,79.05
2017-03-22T03:25:27.018Z,79.14
2017-03-22T03:26:27.040Z,78.57
2017-03-22T03:27:27.077Z,79.43
2017-03-22T03:28:27.126Z,79.33
2017-03-22T03:29:27.163Z,79.05
2017-03-22T03:30:27.198Z,79.05
2017-03-22T03:31:27.212Z,79.43
2017-03-22T03:32:27.250Z,80.19
2017-03-22T03:33:27.281Z,79.33
2017-03-22T03:34:27.342Z,79.33
2017-03-22T03:35:27.365Z,80.1
2017-03-22T03:36:27.385Z,79.33
2017-03-22T03:37:27.658Z,79.52
2017-03-22T03:38:27.754Z,79.52
2017-03-22T03:39:27.492Z,79.43
2017-03-22T03:40:27.523Z,79.33
2017-03-22T03:41:27.558Z,80.1
2017-03-22T03:42:27.610Z,79.81
2017-03-22T03:43:27.625Z,79.81
2017-03-22T03:44:27.661Z,79.81
2017-03-22T03:45:27.706Z,80.19
2017-03-22T03:46:27.728Z,79.91
2017-03-22T03:47:27.761Z,80
2017-03-22T03:48:27.814Z,79.91
2017-03-22T03:49:27.850Z,80
2017-03-22T03:50:27.880Z,80
2017-03-22T03:51:27.900Z,79.91
2017-03-22T03:52:27.950Z,79.91
2017-03-22T03:53:27.968Z,80.19
2017-03-22T03:54:28.303Z,79.91
2017-03-22T03:55:28.049Z,80.38
2017-03-22T03:56:28.085Z,79.81
2017-03-22T03:57:28.118Z,80.29
2017-03-22T03:58:28.139Z,79.72
2017-03-22T03:59:28.192Z,80.19
2017-03-22T04:00:28.223Z,80.19
2017-03-22T04:01:28.549Z,80.29
2017-03-22T04:02:28.274Z,80.29
2017-03-22T04:03:28.326Z,80.1
2017-03-22T04:04:28.646Z,80.29
2017-03-22T04:05:28.393Z,80.1
2017-03-22T04:06:28.429Z,80.24
2017-03-22T04:07:28.462Z,80.24
2017-03-22T04:08:28.497Z,80.29
2017-03-22T04:09:28.517Z,80.1
2017-03-22T04:10:28.565Z,80.15
2017-03-22T04:11:28.598Z,79.72
2017-03-22T04:12:28.635Z,79.72
2017-03-22T04:13:28.973Z,79.86
2017-03-22T04:14:28.704Z,79.86
2017-03-22T04:15:28.720Z,79.96
2017-03-22T04:16:28.768Z,80
2017-03-22T04:17:28.789Z,79.86
2017-03-22T04:18:28.829Z,79.68
2017-03-22T04:19:28.878Z,79.58
2017-03-22T04:20:28.889Z,79.58
2017-03-22T04:21:28.922Z,79.3
2017-03-22T04:22:28.961Z,79.43
2017-03-22T04:23:29.013Z,79.58
2017-03-22T04:24:29.043Z,79.58
2017-03-22T04:25:29.077Z,79.49
2017-03-22T04:26:29.092Z,79.39
2017-03-22T04:27:29.147Z,79.3
2017-03-22T04:28:29.193Z,79.2
2017-03-22T04:29:29.201Z,79.3
2017-03-22T04:30:29.252Z,79.3
2017-03-22T04:31:29.265Z,79.49
2017-03-22T04:32:29.299Z,79.68
2017-03-22T04:33:29.334Z,79.49
2017-03-22T04:34:29.383Z,79.3
2017-03-22T04:35:29.420Z,79.3
2017-03-22T04:36:29.434Z,79.49
2017-03-22T04:37:29.483Z,79.49
2017-03-22T04:38:29.521Z,79.49
2017-03-22T04:39:29.552Z,79.39
2017-03-22T04:40:29.587Z,79.3
2017-03-22T04:41:29.908Z,79.3
2017-03-22T04:42:29.641Z,79.68
2017-03-22T04:43:29.683Z,79.11
2017-03-22T04:44:29.757Z,79.01
2017-03-22T04:45:29.758Z,79.01
2017-03-22T04:46:29.790Z,79.39
2017-03-22T04:47:29.826Z,79.2
2017-03-22T04:48:30.149Z,79.2
2017-03-22T04:49:30.180Z,78.91
2017-03-22T04:50:29.911Z,79.3
2017-03-22T04:51:29.946Z,79.11
2017-03-22T04:52:29.995Z,79.49
2017-03-22T04:53:30.014Z,79.11
2017-03-22T04:54:30.065Z,79.2
2017-03-22T04:55:30.083Z,79.3
2017-03-22T04:56:30.130Z,79.11
2017-03-22T04:57:30.175Z,79.2
2017-03-22T04:58:30.185Z,79.3
2017-03-22T04:59:30.221Z,79.11
2017-03-22T05:00:30.253Z,79.3
2017-03-22T05:01:30.304Z,78.82
2017-03-22T05:02:30.320Z,78.91
2017-03-22T05:03:30.657Z,78.53
2017-03-22T05:04:30.407Z,79.3
2017-03-22T05:05:30.438Z,78.72
2017-03-22T05:06:30.472Z,79.11
2017-03-22T05:07:30.510Z,78.63
2017-03-22T05:08:30.858Z,78.91
2017-03-22T05:09:30.559Z,78.63
2017-03-22T05:10:30.607Z,78.82
2017-03-22T05:11:30.639Z,78.91
2017-03-22T05:12:30.676Z,79.2
2017-03-22T05:13:30.998Z,79.39
2017-03-22T05:14:30.750Z,78.82
2017-03-22T05:15:30.777Z,79.2
2017-03-22T05:16:30.812Z,79.2
2017-03-22T05:17:30.852Z,78.63
2017-03-22T05:18:30.885Z,78.63
2017-03-22T05:19:30.898Z,79.2
2017-03-22T05:20:30.930Z,78.91
2017-03-22T05:21:30.964Z,79.01
2017-03-22T05:22:31.327Z,79.39
2017-03-22T05:23:31.037Z,79.01
2017-03-22T05:24:31.070Z,78.91
2017-03-22T05:25:31.115Z,78.91
2017-03-22T05:26:31.134Z,78.91
2017-03-22T05:27:31.186Z,78.72
2017-03-22T05:28:31.223Z,79.39
2017-03-22T05:29:31.238Z,78.72
2017-03-22T05:30:31.286Z,79.11
2017-03-22T05:31:31.324Z,79.01
2017-03-22T05:32:31.689Z,78.82
2017-03-22T05:33:31.390Z,78.82
2017-03-22T05:34:31.424Z,78.82
2017-03-22T05:35:31.457Z,78.82
2017-03-22T05:36:31.475Z,79.3
2017-03-22T05:37:31.508Z,79.11
2017-03-22T05:38:31.560Z,79.3
2017-03-22T05:39:31.591Z,79.11
2017-03-22T05:40:31.626Z,79.49
2017-03-22T05:41:31.662Z,79.3
2017-03-22T05:42:31.698Z,78.63
2017-03-22T05:43:31.714Z,79.39
2017-03-22T05:44:31.761Z,78.72
2017-03-22T05:45:31.781Z,79.01
2017-03-22T05:46:31.815Z,78.82
2017-03-22T05:47:31.849Z,78.63
2017-03-22T05:48:31.885Z,78.63
2017-03-22T05:49:31.917Z,78.63
2017-03-22T05:50:31.950Z,79.68
2017-03-22T05:51:31.998Z,79.11
2017-03-22T05:52:32.017Z,78.63
2017-03-22T05:53:32.075Z,78.91
2017-03-22T05:54:32.110Z,78.91
2017-03-22T05:55:32.123Z,79.01
2017-03-22T05:56:32.153Z,78.91
2017-03-22T05:57:32.194Z,78.63
2017-03-22T05:58:32.240Z,79.01
2017-03-22T05:59:32.256Z,78.53
2017-03-22T06:00:32.310Z,78.82
2017-03-22T06:01:32.332Z,78.63
2017-03-22T06:02:32.362Z,79.01
2017-03-22T06:03:32.395Z,78.63
2017-03-22T06:04:32.446Z,78.53
2017-03-22T06:05:32.466Z,78.53
2017-03-22T06:06:32.511Z,78.53
2017-03-22T06:07:32.853Z,78.63
2017-03-22T06:08:32.567Z,78.16
2017-03-22T06:09:32.618Z,78.63
2017-03-22T06:10:32.649Z,78.44
2017-03-22T06:11:32.666Z,78.25
2017-03-22T06:12:32.699Z,78.34
2017-03-22T06:13:32.756Z,78.06
2017-03-22T06:14:32.772Z,78.34
2017-03-22T06:15:32.806Z,78.06
2017-03-22T06:16:32.853Z,78.44
2017-03-22T06:17:32.885Z,78.25
2017-03-22T06:18:32.933Z,78.44
2017-03-22T06:19:33.247Z,78.06
2017-03-22T06:20:32.972Z,78.34
2017-03-22T06:21:33.025Z,78.16
2017-03-22T06:22:33.070Z,78.34
2017-03-22T06:23:33.401Z,78.44
2017-03-22T06:24:33.110Z,78.63
2017-03-22T06:25:33.168Z,78.34
2017-03-22T06:26:33.192Z,78.63
2017-03-22T06:27:33.218Z,78.16
2017-03-22T06:28:33.246Z,77.97
2017-03-22T06:29:33.283Z,78.06
2017-03-22T06:30:33.331Z,77.97
2017-03-22T06:31:33.351Z,77.87
2017-03-22T06:32:33.387Z,77.77
2017-03-22T06:33:33.725Z,77.77
2017-03-22T06:34:33.471Z,77.68
2017-03-22T06:35:33.504Z,77.77
2017-03-22T06:36:33.563Z,77.77
2017-03-22T06:37:33.577Z,77.58
2017-03-22T06:38:33.896Z,77.77
2017-03-22T06:39:33.633Z,77.24
2017-03-22T06:40:33.661Z,77.53
2017-03-22T06:41:33.698Z,77.15
2017-03-22T06:42:33.749Z,77.62
2017-03-22T06:43:33.767Z,77.15
2017-03-22T06:44:33.816Z,77.43
2017-03-22T06:45:33.831Z,76.92
2017-03-22T06:46:33.871Z,76.96
2017-03-22T06:47:33.907Z,77.53
2017-03-22T06:48:33.940Z,77.81
2017-03-22T06:49:33.971Z,77.05
2017-03-22T06:50:34.006Z,77.15
2017-03-22T06:51:34.046Z,77.34
2017-03-22T06:52:34.080Z,77.24
2017-03-22T06:53:34.120Z,77.43
2017-03-22T06:54:34.161Z,77.15
2017-03-22T06:55:34.179Z,77.05
2017-03-22T06:56:34.230Z,77.05
2017-03-22T06:57:34.269Z,77.43
2017-03-22T06:58:34.287Z,77.53
2017-03-22T06:59:34.381Z,77.62
2017-03-22T07:00:34.353Z,77.34
2017-03-22T07:01:34.405Z,77.34
2017-03-22T07:02:34.426Z,77.43
2017-03-22T07:03:34.462Z,77.05
2017-03-22T07:04:34.493Z,77.24
2017-03-22T07:05:34.542Z,77.15
2017-03-22T07:06:34.579Z,77.15
2017-03-22T07:07:34.612Z,77.24
2017-03-22T07:08:34.648Z,77.34
2017-03-22T07:09:34.664Z,77.24
2017-03-22T07:10:34.700Z,77.53
2017-03-22T07:11:34.734Z,77.53
2017-03-22T07:12:34.788Z,77.43
2017-03-22T07:13:34.806Z,77.43
2017-03-22T07:14:34.856Z,77.53
2017-03-22T07:15:34.879Z,77.34
2017-03-22T07:16:34.927Z,77.34
2017-03-22T07:17:34.962Z,77.24
2017-03-22T07:18:34.998Z,77.24
2017-03-22T07:19:35.067Z,77.47
2017-03-22T07:20:35.050Z,77.47
2017-03-22T07:21:35.162Z,77.66
2017-03-22T07:22:35.857Z,77.19
2017-03-22T07:23:35.461Z,77.09
2017-03-22T07:24:35.217Z,77.09
2017-03-22T07:25:35.227Z,77.28
2017-03-22T07:26:35.301Z,77.19
2017-03-22T07:27:35.321Z,77.47
2017-03-22T07:28:35.516Z,77.28
2017-03-22T07:29:35.371Z,77.19
2017-03-22T07:30:35.423Z,77.32
2017-03-22T07:31:35.612Z,77.22
2017-03-22T07:32:35.477Z,77.22
2017-03-22T07:33:35.818Z,77.03
2017-03-22T07:34:35.549Z,77.32
2017-03-22T07:35:35.587Z,76.27
2017-03-22T07:36:35.620Z,75.99
2017-03-22T07:37:35.797Z,76.08
2017-03-22T07:38:35.997Z,75.89
2017-03-22T07:39:36.072Z,76.08
2017-03-22T07:40:35.792Z,75.99
2017-03-22T07:41:35.821Z,75.7
2017-03-22T07:42:35.842Z,75.99
2017-03-22T07:43:35.879Z,75.7
2017-03-22T07:44:35.924Z,75.95
2017-03-22T07:45:35.961Z,76.33
2017-03-22T07:46:35.980Z,76.52
2017-03-22T07:47:36.033Z,76.33
2017-03-22T07:48:36.072Z,76.14
2017-03-22T07:49:36.127Z,75.76
2017-03-22T07:50:36.129Z,76.14
2017-03-22T07:51:36.161Z,75.95
2017-03-22T07:52:36.314Z,76.42
2017-03-22T07:53:36.251Z,76.04
2017-03-22T07:54:36.325Z,75.85
2017-03-22T07:55:36.334Z,75.85
2017-03-22T07:56:36.357Z,75.85
2017-03-22T07:57:36.394Z,76.76
2017-03-22T07:58:36.429Z,76.86
2017-03-22T07:59:36.448Z,77.24
2017-03-22T08:00:36.486Z,77.24
2017-03-22T08:01:36.911Z,77.34
2017-03-22T08:02:36.861Z,77.53
2017-03-22T08:03:36.896Z,77.72
2017-03-22T08:04:36.644Z,77.62
2017-03-22T08:05:36.692Z,77.56
2017-03-22T08:06:36.728Z,77.76
2017-03-22T08:07:36.754Z,77.37
2017-03-22T08:08:36.791Z,77.09
2017-03-22T08:09:36.805Z,77.28
2017-03-22T08:10:36.906Z,77.47
2017-03-22T08:11:36.905Z,77.47
2017-03-22T08:12:36.930Z,77.13
2017-03-22T08:13:36.952Z,77.32
2017-03-22T08:14:36.995Z,76.94
2017-03-22T08:15:37.034Z,77.32
2017-03-22T08:16:37.114Z,77.42
2017-03-22T08:17:37.432Z,76.56
2017-03-22T08:18:37.215Z,75.99
2017-03-22T08:19:37.187Z,75.89
2017-03-22T08:20:37.478Z,76.08
2017-03-22T08:21:37.324Z,76.18
2017-03-22T08:22:37.276Z,75.99
2017-03-22T08:23:37.632Z,76.18
2017-03-22T08:24:37.462Z,75.99
2017-03-22T08:25:37.881Z,76.46
2017-03-22T08:26:37.723Z,76.71
2017-03-22T08:27:37.759Z,76.71
2017-03-22T08:28:37.513Z,76.81
2017-03-22T08:29:37.552Z,77.13
2017-03-22T08:30:37.584Z,76.81
2017-03-22T08:31:37.656Z,76.42
2017-03-22T08:32:37.659Z,76.14
2017-03-22T08:33:37.689Z,76.71
2017-03-22T08:34:37.714Z,76.14
2017-03-22T08:35:37.742Z,76.81
2017-03-22T08:36:37.794Z,77.66
2017-03-22T08:37:37.847Z,77.66
2017-03-22T08:38:37.872Z,77.34
2017-03-22T08:39:37.903Z,78.04
2017-03-22T08:40:37.924Z,77.66
2017-03-22T08:41:37.997Z,77.56
2017-03-22T08:42:38.296Z,77.47
2017-03-22T08:43:38.355Z,77.32
2017-03-22T08:44:38.082Z,77.13
2017-03-22T08:45:38.129Z,77.32
2017-03-22T08:46:38.139Z,77.7
2017-03-22T08:47:38.191Z,76.84
2017-03-22T08:48:38.227Z,76.88
2017-03-22T08:49:38.246Z,77.07
2017-03-22T08:50:38.310Z,76.5
2017-03-22T08:51:38.337Z,76.21
2017-03-22T08:52:38.375Z,76.44
2017-03-22T08:53:38.391Z,75.87
2017-03-22T08:54:38.450Z,75.87
2017-03-22T08:55:38.487Z,75.05
2017-03-22T08:56:38.526Z,74.96
2017-03-22T08:57:38.665Z,74.57
2017-03-22T08:58:38.601Z,73.81
2017-03-22T08:59:38.643Z,74.67
2017-03-22T09:00:38.673Z,73.91
2017-03-22T09:01:38.715Z,73.62
2017-03-22T09:02:38.768Z,73.81
2017-03-22T09:03:38.804Z,73.62
2017-03-22T09:04:38.843Z,72.96
2017-03-22T09:05:38.844Z,73.3
2017-03-22T09:06:38.879Z,73.11
2017-03-22T09:07:38.919Z,72.82
2017-03-22T09:08:39.167Z,73.21
2017-03-22T09:09:38.990Z,73.11
2017-03-22T09:10:39.050Z,73.17
2017-03-22T09:11:39.065Z,73.74
2017-03-22T09:12:39.128Z,73.74
2017-03-22T09:13:39.158Z,73.55
2017-03-22T09:14:39.197Z,73.55
2017-03-22T09:15:39.229Z,73.36
2017-03-22T09:16:39.267Z,73.26
2017-03-22T09:17:39.286Z,72.88
2017-03-22T09:18:39.341Z,72.78
2017-03-22T09:19:39.372Z,73.07
2017-03-22T09:20:39.398Z,72.6
2017-03-22T09:21:39.458Z,72.69
2017-03-22T09:22:39.471Z,72.88
2017-03-22T09:23:39.511Z,72.69
2017-03-22T09:24:39.544Z,72.6
2017-03-22T09:25:39.600Z,72.5
2017-03-22T09:26:39.616Z,72.78
2017-03-22T09:27:39.654Z,73.45
2017-03-22T09:28:39.702Z,74.31
2017-03-22T09:29:39.731Z,73.49
2017-03-22T09:30:39.783Z,73.11
2017-03-22T09:31:39.853Z,72
2017-03-22T09:32:39.863Z,71.14
2017-03-22T09:33:39.891Z,70.89
2017-03-22T09:34:39.923Z,70.61
2017-03-22T09:35:39.979Z,70.73
2017-03-22T09:36:40.025Z,70.45
2017-03-22T09:37:40.050Z,69.15
2017-03-22T09:38:40.110Z,68.41
2017-03-22T09:39:40.136Z,67.55
2017-03-22T09:40:40.163Z,66.41
2017-03-22T09:41:40.236Z,64.72
2017-03-22T09:42:40.262Z,64.25
2017-03-22T09:43:40.303Z,63.86
2017-03-22T09:44:40.329Z,63
2017-03-22T09:45:40.369Z,63.19
2017-03-22T09:46:40.431Z,62.27
2017-03-22T09:47:40.450Z,62.17
2017-03-22T09:48:40.492Z,62.46
2017-03-22T09:49:40.857Z,62.08
2017-03-22T09:50:40.593Z,61.22
2017-03-22T09:51:40.617Z,60.38
2017-03-22T09:52:40.675Z,60.16
2017-03-22T09:53:40.719Z,59.49
2017-03-22T09:54:40.744Z,58.06
2017-03-22T09:55:40.786Z,58.25
2017-03-22T09:56:40.842Z,58.54
2017-03-22T09:57:40.868Z,59.49
2017-03-22T09:58:40.915Z,58.54
2017-03-22T09:59:40.976Z,58.83
2017-03-22T10:00:40.998Z,57.39
2017-03-22T10:01:41.040Z,56.62
2017-03-22T10:02:41.091Z,56.34
2017-03-22T10:03:41.136Z,56.05
2017-03-22T10:04:41.186Z,55.38
2017-03-22T10:05:41.213Z,55.26
2017-03-22T10:06:41.255Z,55.93
2017-03-22T10:07:41.298Z,55.54
2017-03-22T10:08:41.340Z,55.57
2017-03-22T10:09:41.393Z,55.47
2017-03-22T10:10:41.449Z,54.8
2017-03-22T10:11:41.480Z,53.47
2017-03-22T10:12:41.520Z,52.22
2017-03-22T10:13:41.572Z,52.32
2017-03-22T10:14:41.615Z,52.13
2017-03-22T10:15:41.638Z,51.05
2017-03-22T10:16:41.698Z,52.29
2017-03-22T10:17:41.740Z,51.7
2017-03-22T10:18:41.825Z,51.6
2017-03-22T10:19:41.809Z,51.7
2017-03-22T10:20:41.866Z,52.17
2017-03-22T10:21:41.905Z,51.38
2017-03-22T10:22:41.951Z,51.86
2017-03-22T10:23:41.973Z,51.76
2017-03-22T10:24:42.039Z,51.31
2017-03-22T10:25:42.119Z,50.93
2017-03-22T10:26:42.149Z,51.41
2017-03-22T10:27:42.139Z,50.93
2017-03-22T10:28:42.182Z,50.55
2017-03-22T10:29:42.234Z,50.07
2017-03-22T10:30:42.279Z,49.78
2017-03-22T10:31:42.323Z,49.11
2017-03-22T10:32:42.344Z,49.59
2017-03-22T10:33:42.405Z,50.26
2017-03-22T10:34:42.442Z,49.9
2017-03-22T10:35:42.484Z,48.95
2017-03-22T10:36:42.525Z,48.47
2017-03-22T10:37:42.568Z,48.85
2017-03-22T10:38:42.606Z,48.28
2017-03-22T10:39:42.633Z,48.18
2017-03-22T10:40:42.671Z,48.44
2017-03-22T10:41:42.714Z,48.64
2017-03-22T10:42:42.757Z,48.54
2017-03-22T10:43:42.794Z,48.44
2017-03-22T10:44:42.840Z,48.64
2017-03-22T10:45:42.888Z,48.44
2017-03-22T10:46:42.934Z,48.57
2017-03-22T10:47:42.964Z,49.04
2017-03-22T10:48:43.001Z,49.14
2017-03-22T10:49:43.041Z,48.38
2017-03-22T10:50:43.081Z,48.57
2017-03-22T10:51:43.136Z,48.47
2017-03-22T10:52:43.178Z,48.09
2017-03-22T10:53:43.219Z,48.18
2017-03-22T10:54:43.261Z,47.99
2017-03-22T10:55:43.289Z,48.35
2017-03-22T10:56:43.339Z,48.57
2017-03-22T10:57:43.384Z,48.35
2017-03-22T10:58:43.439Z,48.64
2017-03-22T10:59:43.444Z,48.28
2017-03-22T11:00:43.511Z,48.16
2017-03-22T11:01:43.529Z,48.16
2017-03-22T11:02:43.581Z,48.42
2017-03-22T11:03:43.608Z,49.28
2017-03-22T11:04:43.646Z,49.28
2017-03-22T11:05:43.683Z,48.9
2017-03-22T11:06:43.725Z,48.61
2017-03-22T11:07:43.782Z,48.33
2017-03-22T11:08:43.805Z,48.33
2017-03-22T11:09:43.871Z,48.02
2017-03-22T11:10:43.888Z,48.02
2017-03-22T11:11:43.925Z,47.82
2017-03-22T11:12:43.962Z,48.57
2017-03-22T11:13:44.003Z,48.75
2017-03-22T11:14:44.346Z,49.04
2017-03-22T11:15:44.082Z,49.04
2017-03-22T11:16:44.207Z,49.42
2017-03-22T11:17:44.163Z,49.62
2017-03-22T11:18:44.234Z,50.18
2017-03-22T11:19:44.243Z,49.83
2017-03-22T11:20:44.302Z,49.44
2017-03-22T11:21:44.347Z,48.49
2017-03-22T11:22:44.382Z,48.49
2017-03-22T11:23:44.411Z,48.11
2017-03-22T11:24:44.448Z,48.75
2017-03-22T11:25:44.813Z,48.85
2017-03-22T11:26:44.532Z,48.94
2017-03-22T11:27:44.590Z,49.52
2017-03-22T11:28:44.623Z,49.04
2017-03-22T11:29:44.654Z,49.62
2017-03-22T11:30:44.708Z,49.62
2017-03-22T11:31:44.738Z,49.42
2017-03-22T11:32:44.778Z,49.33
2017-03-22T11:33:44.815Z,49.33
2017-03-22T11:34:44.876Z,49.52
2017-03-22T11:35:44.897Z,50.09
2017-03-22T11:36:44.941Z,50.31
2017-03-22T11:37:45.001Z,49.93
2017-03-22T11:38:45.061Z,50.21
2017-03-22T11:39:45.061Z,50.14
2017-03-22T11:40:45.102Z,49.57
2017-03-22T11:41:45.140Z,49.38
2017-03-22T11:42:45.180Z,49.11
2017-03-22T11:43:45.222Z,48.93
2017-03-22T11:44:45.262Z,48.44
2017-03-22T11:45:45.304Z,48.35
2017-03-22T11:46:45.340Z,48.54
2017-03-22T11:47:45.685Z,48.16
2017-03-22T11:48:45.423Z,48.07
2017-03-22T11:49:45.468Z,48.64
2017-03-22T11:50:45.545Z,48.44
2017-03-22T11:51:45.543Z,48.35
2017-03-22T11:52:45.581Z,48.16
2017-03-22T11:53:45.643Z,48.83
2017-03-22T11:54:45.678Z,48.73
2017-03-22T11:55:45.701Z,47.58
2017-03-22T11:56:45.747Z,47.2
2017-03-22T11:57:45.805Z,47.3
2017-03-22T11:58:45.972Z,47.37
2017-03-22T11:59:45.877Z,48.04
2017-03-22T12:00:45.922Z,48.42
2017-03-22T12:01:45.978Z,48.42
2017-03-22T12:02:45.998Z,48.33
2017-03-22T12:03:46.019Z,48.33
2017-03-22T12:04:46.059Z,47.56
2017-03-22T12:05:46.120Z,47.66
2017-03-22T12:06:46.139Z,47.75
2017-03-22T12:07:46.194Z,47.18
2017-03-22T12:08:46.220Z,47.47
2017-03-22T12:09:46.256Z,47.47
2017-03-22T12:10:46.295Z,47.37
2017-03-22T12:11:46.337Z,47.18
2017-03-22T12:12:46.377Z,47.18
2017-03-22T12:13:46.413Z,47.56
2017-03-22T12:14:46.459Z,47.18
2017-03-22T12:15:46.499Z,47.54
2017-03-22T12:16:46.549Z,47.85
2017-03-22T12:17:46.569Z,47.94
2017-03-22T12:18:46.647Z,47.66
2017-03-22T12:19:46.648Z,47.47
2017-03-22T12:20:46.713Z,47.56
2017-03-22T12:21:46.729Z,47.39
2017-03-22T12:22:46.768Z,47.49
2017-03-22T12:23:46.823Z,47.58
2017-03-22T12:24:46.845Z,47.18
2017-03-22T12:25:46.884Z,47.27
2017-03-22T12:26:46.922Z,47.27
2017-03-22T12:27:46.962Z,47.27
2017-03-22T12:28:47.017Z,47.37
2017-03-22T12:29:47.058Z,47.27
2017-03-22T12:30:47.400Z,47.08
2017-03-22T12:31:47.144Z,47.34
2017-03-22T12:32:47.157Z,47.34
2017-03-22T12:33:47.500Z,47.34
2017-03-22T12:34:47.288Z,47.61
2017-03-22T12:35:47.294Z,48.18
2017-03-22T12:36:47.330Z,47.99
2017-03-22T12:37:47.383Z,48.18
2017-03-22T12:38:47.448Z,48.57
2017-03-22T12:39:47.446Z,48.47
2017-03-22T12:40:47.879Z,48.47
2017-03-22T12:41:47.524Z,48.39
2017-03-22T12:42:47.561Z,47.44
2017-03-22T12:43:47.603Z,47.63
2017-03-22T12:44:47.639Z,48.3
2017-03-22T12:45:47.676Z,48.49
2017-03-22T12:46:47.718Z,48.37
2017-03-22T12:47:47.753Z,48.37
2017-03-22T12:48:47.792Z,48.18
2017-03-22T12:49:47.818Z,48.28
2017-03-22T12:50:47.874Z,47.99
2017-03-22T12:51:47.892Z,48.85
2017-03-22T12:52:47.945Z,48.66
2017-03-22T12:53:47.969Z,49.23
2017-03-22T12:54:48.023Z,49.02
2017-03-22T12:55:48.044Z,48.92